Estación de Recoleta

Ultimos registro cada 15 minutos 93
Estación Fecha / Hora Temperatura Humedad Lluvia Velocidad Dirección Radiación Presion
93 Recoleta 08-05-2026 23:00 8,1 62,8 0 0 305 0,6 969,4
92 Recoleta 08-05-2026 22:45 8,9 58,6 0 0 306 0,6 969,4
91 Recoleta 08-05-2026 22:30 9,7 56 0 0 305 0,6 969,5
90 Recoleta 08-05-2026 22:15 8,5 61,8 0 0 310 0,6 969,4
89 Recoleta 08-05-2026 22:00 8,6 61,9 0 0 312 0,6 969,3
88 Recoleta 08-05-2026 21:45 9,3 58,7 0 0 310 0,6 969,1
87 Recoleta 08-05-2026 21:30 10 55,5 0 0 306 0,6 969,1
86 Recoleta 08-05-2026 21:15 9,9 56,5 0 0 300 0,6 968,9
85 Recoleta 08-05-2026 21:00 10,5 54,8 0 0 291 0,6 969
84 Recoleta 08-05-2026 20:45 10,5 55 0 0 288 0,6 968,9
83 Recoleta 08-05-2026 20:30 11,2 52 0 0 288 0,6 968,7
82 Recoleta 08-05-2026 20:15 11,4 51,2 0 0 289 0,6 968,7
81 Recoleta 08-05-2026 20:00 12,3 47,8 0 0 289 0,6 968,6
80 Recoleta 08-05-2026 19:45 13,4 44,4 0 0 286 0,6 968,4
79 Recoleta 08-05-2026 19:30 13,1 47,8 0 0 281 0,6 968,2
78 Recoleta 08-05-2026 19:15 15,1 40 0 0 279 0,6 968,3
77 Recoleta 08-05-2026 19:00 15 40 0 0 215 0,6 968,4
76 Recoleta 08-05-2026 18:45 17,1 37,7 0 0 208 0,6 968,2
75 Recoleta 08-05-2026 18:30 18,3 33,1 0 0,3 209 0,6 967,9
74 Recoleta 08-05-2026 18:15 18,6 32,7 0 0 177 0,6 968
73 Recoleta 08-05-2026 18:00 19,6 31,1 0 0,3 170 4,4 967,9
72 Recoleta 08-05-2026 17:45 20,5 29,5 0 0,3 147 9,4 967,8
71 Recoleta 08-05-2026 17:30 22 25,6 0 0,7 166 13,1 967,5
70 Recoleta 08-05-2026 17:15 22,3 29,9 0 0,3 142 16,9 967,5
69 Recoleta 08-05-2026 17:00 23,2 29,4 0 1,3 142 58,1 967,5
68 Recoleta 08-05-2026 16:45 24 29,3 0 1,3 135 75,6 967,1
67 Recoleta 08-05-2026 16:30 25,1 27,8 0 0,7 168 158,1 967,2
66 Recoleta 08-05-2026 16:15 25,7 25,8 0 1 185 34,4 967
65 Recoleta 08-05-2026 16:00 26,3 24,4 0 0,7 205 239,4 967
64 Recoleta 08-05-2026 15:45 25,6 24,5 0 1 177 283,1 967
63 Recoleta 08-05-2026 15:30 26,4 23,3 0 0,7 211 324,4 967
62 Recoleta 08-05-2026 15:15 26,9 21,5 0 0,7 206 373,1 967,2
61 Recoleta 08-05-2026 15:00 27,6 19,8 0 1 261 408,1 967,1
60 Recoleta 08-05-2026 14:45 28,5 17,9 0 0,3 185 444,4 967
59 Recoleta 08-05-2026 14:30 27,2 18 0 0,7 157 485,6 967,2
58 Recoleta 08-05-2026 14:15 28,1 17,2 0 0,3 229 513,1 967,4
57 Recoleta 08-05-2026 14:00 28,1 18,5 0 0,7 104 548,1 967,4
56 Recoleta 08-05-2026 13:45 26,3 20,4 0 1 126 574,4 967,6
55 Recoleta 08-05-2026 13:30 26,2 21 0 0,7 129 588,1 968
54 Recoleta 08-05-2026 13:15 25,7 23,4 0 1 100 606,9 968,1
53 Recoleta 08-05-2026 13:00 24,7 25,6 0 1 119 620,6 968,4
52 Recoleta 08-05-2026 12:45 24,4 25,7 0 1 117 611,9 968,4
51 Recoleta 08-05-2026 12:30 23,8 26,4 0 1 119 635,6 968,7
50 Recoleta 08-05-2026 12:15 22,8 28 0 0,7 104 633,1 969
49 Recoleta 08-05-2026 12:00 22,5 27,3 0 0,3 121 638,1 969,2
48 Recoleta 08-05-2026 11:45 21,8 29,2 0 0,3 104 621,9 969,2
47 Recoleta 08-05-2026 11:30 20,7 31,4 0 0,3 110 614,4 969,3
46 Recoleta 08-05-2026 11:15 20,7 32 0 0 97 595,6 969,4
45 Recoleta 08-05-2026 11:00 19,6 34,2 0 0 46 588,1 969,6
44 Recoleta 08-05-2026 10:45 18,1 37 0 0 1 356,9 969,6
43 Recoleta 08-05-2026 10:30 18,1 37,5 0 0 0 395,6 969,5
42 Recoleta 08-05-2026 10:15 16,3 40,6 0 0 0 304,4 970
41 Recoleta 08-05-2026 10:00 16,2 42,2 0 0 0 251,9 970,2
40 Recoleta 08-05-2026 09:45 15,9 43,3 0 0 0 219,4 970,1
39 Recoleta 08-05-2026 09:30 14,5 47,3 0 0 0 203,1 970,5
38 Recoleta 08-05-2026 09:15 13,3 49,7 0 0 0 268,1 970,4
37 Recoleta 08-05-2026 09:00 12,8 53,5 0 0 340 274,4 970,2
36 Recoleta 08-05-2026 08:45 12,3 56,1 0 0 338 216,9 970,3
35 Recoleta 08-05-2026 08:30 10,9 58,7 0 0 321 204,4 970,4
34 Recoleta 08-05-2026 08:15 10 68 0 0 305 200,6 970,3
33 Recoleta 08-05-2026 08:00 7,5 79,7 0 0 305 34,4 970,1
32 Recoleta 08-05-2026 07:45 4,7 84 0 0 305 43,1 970
31 Recoleta 08-05-2026 07:30 4,2 83,6 0 0 306 6,9 970,1
30 Recoleta 08-05-2026 07:15 4,3 83,5 0 0 307 0,6 969,9
29 Recoleta 08-05-2026 07:00 4,4 81,8 0 0 310 0,6 969,6
28 Recoleta 08-05-2026 06:45 5,2 80,1 0 0 310 0,6 969,7
27 Recoleta 08-05-2026 06:30 4,8 81,7 0 0 310 0,6 969,5
26 Recoleta 08-05-2026 06:15 5,3 80,8 0 0 310 0,6 969,6
25 Recoleta 08-05-2026 06:00 5,2 82,3 0 0 310 0,6 969,6
24 Recoleta 08-05-2026 05:45 4,9 82,7 0 0 310 0,6 969,7
23 Recoleta 08-05-2026 05:30 5 83,1 0 0 312 0,6 969,6
22 Recoleta 08-05-2026 05:15 4,8 83,8 0 0 312 0,6 969,7
21 Recoleta 08-05-2026 05:00 4,7 83,6 0 0 312 0,6 969,6
20 Recoleta 08-05-2026 04:45 4,7 83 0 0 312 0,6 969,6
19 Recoleta 08-05-2026 04:30 5,3 80,5 0 0 312 0,6 969,5
18 Recoleta 08-05-2026 04:15 4,9 83,2 0 0 312 0,6 969,4
17 Recoleta 08-05-2026 04:00 4,9 83,9 0 0 312 0,6 969,7
16 Recoleta 08-05-2026 03:45 5,3 82 0 0 312 0,6 970
15 Recoleta 08-05-2026 03:30 5,7 80,4 0 0 312 0,6 970
14 Recoleta 08-05-2026 03:15 5,6 80,7 0 0 312 0,6 970,2
13 Recoleta 08-05-2026 03:00 5,8 79,8 0 0 312 0,6 970,4
12 Recoleta 08-05-2026 02:45 6,6 76,2 0 0 319 0,6 970,6
11 Recoleta 08-05-2026 02:30 5,8 81,8 0 0 330 0,6 970,8
10 Recoleta 08-05-2026 02:15 5,5 82,6 0 0 327 0,6 970,8
9 Recoleta 08-05-2026 02:00 5,7 81,4 0 0 327 0,6 971,1
8 Recoleta 08-05-2026 01:45 6,2 80 0 0 329 0,6 971,1
7 Recoleta 08-05-2026 01:30 7,7 75,5 0 0 331 0,6 971
6 Recoleta 08-05-2026 01:15 7,3 79,6 0 0,3 331 0,6 971,1
5 Recoleta 08-05-2026 01:00 6,5 83,8 0 0 323 0,6 971,4
4 Recoleta 08-05-2026 00:45 6,5 84,2 0 0 324 0,6 971,5
3 Recoleta 08-05-2026 00:30 6,5 82,3 0 0 327 0,6 971,4
2 Recoleta 08-05-2026 00:15 7 80,6 0 0 330 0,6 971,7
1 Recoleta 08-05-2026 00:00 7,1 80,9 0 0 330 0,6 971,4